createdAt,value
2018-12-01T00:00:04.107Z,0
2018-12-01T00:00:56.220Z,0
2018-12-01T00:01:48.562Z,0
2018-12-01T00:02:41.918Z,0
2018-12-01T00:03:33.926Z,0
2018-12-01T00:04:26.135Z,0
2018-12-01T00:05:19.086Z,0
2018-12-01T00:06:12.569Z,0
2018-12-01T00:07:05.066Z,0
2018-12-01T00:07:57.415Z,0
2018-12-01T00:08:49.485Z,0
2018-12-01T00:09:42.551Z,0
2018-12-01T00:10:35.047Z,0
2018-12-01T00:11:26.953Z,0
2018-12-01T00:12:18.896Z,0
2018-12-01T00:13:11.126Z,0
2018-12-01T00:14:03.535Z,0
2018-12-01T00:14:56.569Z,0
2018-12-01T00:15:48.889Z,0
2018-12-01T00:16:40.991Z,0
2018-12-01T00:17:33.607Z,0
2018-12-01T00:18:25.601Z,0
2018-12-01T00:19:18.024Z,0
2018-12-01T00:20:09.774Z,0
2018-12-01T00:21:02.042Z,0
2018-12-01T00:21:55.563Z,0
2018-12-01T00:22:48.054Z,0
2018-12-01T00:25:21.495Z,0
2018-12-01T00:26:13.920Z,0
2018-12-01T00:27:06.958Z,0
2018-12-01T00:27:59.009Z,0
2018-12-01T00:28:50.998Z,0
2018-12-01T00:29:43.410Z,0
2018-12-01T00:30:35.948Z,0
2018-12-01T00:31:28.365Z,0
2018-12-01T00:32:20.907Z,0
2018-12-01T00:33:13.583Z,0
2018-12-01T00:34:05.947Z,0
2018-12-01T00:34:58.514Z,0
2018-12-01T00:35:50.387Z,0
2018-12-01T00:36:42.436Z,0
2018-12-01T00:37:34.795Z,0
2018-12-01T00:38:26.839Z,0
2018-12-01T00:39:19.882Z,0
2018-12-01T00:40:11.905Z,0
2018-12-01T00:41:04.259Z,0
2018-12-01T00:41:56.065Z,0
2018-12-01T00:42:48.414Z,0
2018-12-01T00:43:40.363Z,0
2018-12-01T00:44:32.416Z,0
2018-12-01T00:45:24.815Z,0
2018-12-01T00:46:17.443Z,0
2018-12-01T00:47:10.083Z,0
2018-12-01T00:48:02.322Z,0
2018-12-01T00:48:55.214Z,0
2018-12-01T00:49:47.318Z,0
2018-12-01T00:50:39.175Z,0
2018-12-01T00:51:24.597Z,0
2018-12-01T00:52:04.984Z,0
2018-12-01T00:52:45.312Z,0
2018-12-01T00:53:25.727Z,0
2018-12-01T00:54:06.110Z,0
2018-12-01T00:54:46.454Z,0
2018-12-01T00:55:26.884Z,0
2018-12-01T00:56:07.215Z,0
2018-12-01T00:56:47.660Z,0
2018-12-01T00:57:27.993Z,0
2018-12-01T00:58:08.434Z,0
2018-12-01T00:58:48.824Z,0
2018-12-01T00:59:29.233Z,0
2018-12-01T01:00:09.730Z,0
2018-12-01T01:00:50.093Z,0
2018-12-01T01:01:30.505Z,0
2018-12-01T01:02:10.881Z,0
2018-12-01T01:02:51.238Z,0
2018-12-01T01:03:31.640Z,0
2018-12-01T01:04:12.031Z,0
2018-12-01T01:04:52.442Z,0
2018-12-01T01:05:32.855Z,0
2018-12-01T01:06:13.266Z,0
2018-12-01T01:06:53.660Z,0
2018-12-01T01:07:34.033Z,0
2018-12-01T01:08:14.465Z,0
2018-12-01T01:08:54.813Z,0
2018-12-01T01:09:35.346Z,0
2018-12-01T01:10:15.721Z,0
2018-12-01T01:10:56.121Z,0
2018-12-01T01:11:36.407Z,0
2018-12-01T01:12:16.854Z,0
2018-12-01T01:12:57.238Z,0
2018-12-01T01:13:37.641Z,0
2018-12-01T01:14:18.042Z,0
2018-12-01T01:14:58.478Z,0
2018-12-01T01:15:38.907Z,0
2018-12-01T01:16:19.307Z,0
2018-12-01T01:16:59.672Z,0
2018-12-01T01:17:40.032Z,0
2018-12-01T01:18:20.455Z,0
2018-12-01T01:19:00.728Z,0
2018-12-01T01:19:41.220Z,0
2018-12-01T01:20:21.549Z,0
2018-12-01T01:21:01.939Z,0
2018-12-01T01:21:42.316Z,0
2018-12-01T01:22:22.706Z,0
2018-12-01T01:23:03.107Z,0
2018-12-01T01:23:43.501Z,0
2018-12-01T01:24:23.941Z,0
2018-12-01T01:25:04.299Z,0
2018-12-01T01:25:44.678Z,0
2018-12-01T01:26:25.159Z,0
2018-12-01T01:27:05.525Z,0
2018-12-01T01:27:45.853Z,0
2018-12-01T01:28:26.223Z,0
2018-12-01T01:29:06.607Z,0
2018-12-01T01:29:47.013Z,0
2018-12-01T01:30:27.426Z,0
2018-12-01T01:31:07.918Z,0
2018-12-01T01:31:48.227Z,0
2018-12-01T01:32:28.682Z,0
2018-12-01T01:33:09.066Z,0
2018-12-01T01:33:49.439Z,0
2018-12-01T01:34:29.928Z,0
2018-12-01T01:35:10.318Z,0
2018-12-01T01:35:50.721Z,0
2018-12-01T01:36:31.111Z,0
2018-12-01T01:37:11.498Z,0
2018-12-01T01:37:51.867Z,0
2018-12-01T01:38:32.281Z,0
2018-12-01T01:39:12.666Z,0
2018-12-01T01:39:53.101Z,0
2018-12-01T01:40:33.435Z,0
2018-12-01T01:41:13.791Z,0
2018-12-01T01:41:54.154Z,0
2018-12-01T01:42:34.574Z,0
2018-12-01T01:43:14.995Z,0
2018-12-01T01:43:55.379Z,0
2018-12-01T01:44:35.712Z,0
2018-12-01T01:45:16.089Z,0
2018-12-01T01:45:56.572Z,0
2018-12-01T01:46:36.985Z,0
2018-12-01T01:47:17.379Z,0
2018-12-01T01:47:57.788Z,0
2018-12-01T01:48:38.416Z,0
2018-12-01T01:49:18.879Z,0
2018-12-01T01:49:59.280Z,0
2018-12-01T01:50:39.643Z,0
2018-12-01T01:51:20.023Z,0
2018-12-01T01:52:00.372Z,0
2018-12-01T01:52:40.724Z,0
2018-12-01T01:53:21.135Z,0
2018-12-01T01:54:01.578Z,0
2018-12-01T01:54:41.925Z,0
2018-12-01T01:55:22.266Z,0
2018-12-01T01:56:02.691Z,0
2018-12-01T01:56:43.079Z,0
2018-12-01T01:57:23.421Z,0
2018-12-01T01:58:03.836Z,0
2018-12-01T01:58:44.273Z,0
2018-12-01T01:59:24.635Z,0
2018-12-01T02:00:05.032Z,0
2018-12-01T02:00:45.422Z,0
2018-12-01T02:01:25.787Z,0
2018-12-01T02:02:06.165Z,0
2018-12-01T02:02:46.522Z,0
2018-12-01T02:03:26.973Z,0
2018-12-01T02:04:07.374Z,0
2018-12-01T02:04:47.748Z,0
2018-12-01T02:05:28.158Z,0
2018-12-01T02:06:08.589Z,0
2018-12-01T02:06:48.976Z,0
2018-12-01T02:07:29.294Z,0
2018-12-01T02:08:09.738Z,0
2018-12-01T02:08:50.129Z,0
2018-12-01T02:09:30.611Z,0
2018-12-01T02:10:10.915Z,0
2018-12-01T02:10:51.321Z,0
2018-12-01T02:11:31.723Z,0
2018-12-01T02:12:12.879Z,0
2018-12-01T02:12:52.486Z,0
2018-12-01T02:13:32.907Z,0
2018-12-01T02:14:13.321Z,0
2018-12-01T02:14:53.704Z,0
2018-12-01T02:15:34.062Z,0
2018-12-01T02:16:14.514Z,0
2018-12-01T02:16:54.885Z,0
2018-12-01T02:17:35.204Z,0
2018-12-01T02:18:15.687Z,0
2018-12-01T02:18:56.002Z,0
2018-12-01T02:19:36.390Z,0
2018-12-01T02:20:16.781Z,0
2018-12-01T02:20:57.185Z,0
2018-12-01T02:21:37.501Z,0
2018-12-01T02:22:17.971Z,0
2018-12-01T02:22:58.366Z,0
2018-12-01T02:23:38.774Z,0
2018-12-01T02:24:19.183Z,0
2018-12-01T02:24:59.561Z,0
2018-12-01T02:25:39.969Z,0
2018-12-01T02:26:20.342Z,0
2018-12-01T02:27:00.780Z,0
2018-12-01T02:27:41.172Z,0
2018-12-01T02:28:21.560Z,0
2018-12-01T02:29:01.941Z,0
2018-12-01T02:29:42.337Z,0
2018-12-01T02:30:22.742Z,0
2018-12-01T02:31:03.217Z,0
2018-12-01T02:31:43.554Z,0
2018-12-01T02:32:23.935Z,0
2018-12-01T02:33:04.285Z,0
2018-12-01T02:33:44.687Z,0
2018-12-01T02:34:25.079Z,0
2018-12-01T02:35:05.491Z,0
2018-12-01T02:35:45.863Z,0
2018-12-01T02:36:26.259Z,0
2018-12-01T02:37:06.722Z,0
2018-12-01T02:37:47.245Z,0
2018-12-01T02:38:27.588Z,0
2018-12-01T02:39:08.059Z,0
2018-12-01T02:39:48.361Z,0
2018-12-01T02:40:28.706Z,0
2018-12-01T02:41:09.077Z,0
2018-12-01T02:41:49.532Z,0
2018-12-01T02:42:29.890Z,0
2018-12-01T02:43:10.333Z,0
2018-12-01T02:43:50.649Z,0
2018-12-01T02:44:31.034Z,0
2018-12-01T02:45:11.479Z,0
2018-12-01T02:45:51.887Z,0
2018-12-01T02:46:32.337Z,0
2018-12-01T02:47:12.753Z,0
2018-12-01T02:47:53.120Z,0
2018-12-01T02:48:33.563Z,0
2018-12-01T02:49:13.864Z,0
2018-12-01T02:49:54.193Z,0
2018-12-01T02:50:34.655Z,0
2018-12-01T02:51:15.027Z,0
2018-12-01T02:51:55.459Z,0
2018-12-01T02:52:35.915Z,0
2018-12-01T02:53:16.179Z,0
2018-12-01T02:53:56.669Z,0
2018-12-01T02:54:36.984Z,0
2018-12-01T02:55:17.420Z,0
2018-12-01T02:55:57.852Z,0
2018-12-01T02:56:38.208Z,0
2018-12-01T02:57:18.600Z,0
2018-12-01T02:57:59.007Z,0
2018-12-01T02:58:39.428Z,0
2018-12-01T02:59:19.833Z,0
2018-12-01T03:00:00.187Z,0
2018-12-01T03:00:40.602Z,0
2018-12-01T03:01:21.048Z,0
2018-12-01T03:02:01.428Z,0
2018-12-01T03:02:41.904Z,0
2018-12-01T03:03:22.246Z,0
2018-12-01T03:04:02.640Z,0
2018-12-01T03:04:43.033Z,0
2018-12-01T03:05:23.433Z,0
2018-12-01T03:06:03.782Z,0
2018-12-01T03:06:44.223Z,0
2018-12-01T03:07:24.563Z,0
2018-12-01T03:08:04.999Z,0
2018-12-01T03:08:45.404Z,0
2018-12-01T03:09:25.841Z,0
2018-12-01T03:10:06.191Z,0
2018-12-01T03:10:46.603Z,0
2018-12-01T03:11:26.981Z,0
2018-12-01T03:12:07.321Z,0
2018-12-01T03:12:47.820Z,0
2018-12-01T03:13:28.090Z,0
2018-12-01T03:14:08.559Z,0
2018-12-01T03:14:48.990Z,0
2018-12-01T03:15:29.318Z,0
2018-12-01T03:16:09.724Z,0
2018-12-01T03:16:50.176Z,0
2018-12-01T03:17:30.543Z,0
2018-12-01T03:18:13.564Z,0
2018-12-01T03:18:52.198Z,0
2018-12-01T03:19:34.199Z,0
2018-12-01T03:20:14.568Z,0
2018-12-01T03:20:55.002Z,0
2018-12-01T03:21:35.789Z,0
2018-12-01T03:22:16.585Z,0
2018-12-01T03:22:56.751Z,0
2018-12-01T03:23:37.153Z,0
2018-12-01T03:24:17.561Z,0
2018-12-01T03:24:57.905Z,0
2018-12-01T03:25:38.247Z,0
2018-12-01T03:26:18.669Z,0
2018-12-01T03:26:59.068Z,0
2018-12-01T03:27:39.629Z,0
2018-12-01T03:28:19.994Z,0
2018-12-01T03:29:00.341Z,0
2018-12-01T03:29:40.735Z,0
2018-12-01T03:30:21.232Z,0
2018-12-01T03:31:01.571Z,0
2018-12-01T03:31:41.961Z,0
2018-12-01T03:32:22.369Z,0
2018-12-01T03:33:02.706Z,0
2018-12-01T03:33:43.066Z,0
2018-12-01T03:34:23.546Z,0
2018-12-01T03:35:03.902Z,0
2018-12-01T03:35:44.294Z,0
2018-12-01T03:36:24.666Z,0
2018-12-01T03:37:05.175Z,0
2018-12-01T03:37:45.438Z,0
2018-12-01T03:38:25.938Z,0
2018-12-01T03:39:06.330Z,0
2018-12-01T03:39:46.738Z,0
2018-12-01T03:40:27.150Z,0
2018-12-01T03:41:07.532Z,0
2018-12-01T03:41:47.875Z,0
2018-12-01T03:42:28.212Z,0
2018-12-01T03:43:08.595Z,0
2018-12-01T03:43:49.081Z,0
2018-12-01T03:44:29.470Z,0
2018-12-01T03:45:09.920Z,0
2018-12-01T03:45:50.309Z,0
2018-12-01T03:48:30.590Z,0
2018-12-01T03:49:10.964Z,0
2018-12-01T03:49:51.536Z,0
2018-12-01T03:50:31.907Z,0
2018-12-01T03:51:12.424Z,0
2018-12-01T03:51:52.996Z,0
2018-12-01T03:52:34.231Z,0
2018-12-01T03:53:14.820Z,0
2018-12-01T03:53:55.047Z,0
2018-12-01T03:54:35.475Z,0
2018-12-01T03:55:16.485Z,0
2018-12-01T03:55:57.011Z,0
2018-12-01T03:56:37.326Z,0
2018-12-01T03:57:17.671Z,0
2018-12-01T03:57:59.120Z,0
2018-12-01T03:58:39.604Z,0
2018-12-01T03:59:19.920Z,0
2018-12-01T04:00:00.111Z,0
2018-12-01T04:00:40.554Z,0
2018-12-01T04:01:20.980Z,0
2018-12-01T04:02:01.391Z,0
2018-12-01T04:02:41.727Z,0
2018-12-01T04:03:22.128Z,0
2018-12-01T04:04:02.744Z,0
2018-12-01T04:04:43.368Z,0
2018-12-01T04:05:23.722Z,0
2018-12-01T04:06:03.903Z,0
2018-12-01T04:06:44.353Z,0
2018-12-01T04:07:25.539Z,0
2018-12-01T04:08:06.017Z,0
2018-12-01T04:08:46.569Z,0
2018-12-01T04:09:27.461Z,0
2018-12-01T04:10:08.085Z,0
2018-12-01T04:10:48.517Z,0
2018-12-01T04:11:28.885Z,0
2018-12-01T04:12:09.344Z,0
2018-12-01T04:12:49.778Z,0
2018-12-01T04:13:30.207Z,0
2018-12-01T04:14:10.669Z,0
2018-12-01T04:14:50.978Z,0
2018-12-01T04:15:31.492Z,0
2018-12-01T04:16:11.772Z,0
2018-12-01T04:16:52.129Z,0
2018-12-01T04:19:36.919Z,0
2018-12-01T04:20:29.071Z,0
2018-12-01T04:21:21.192Z,0
2018-12-01T04:22:12.961Z,0
2018-12-01T04:23:04.912Z,0
2018-12-01T04:23:57.508Z,0
2018-12-01T04:24:49.431Z,0
2018-12-01T04:25:42.055Z,0
2018-12-01T04:26:33.933Z,0
2018-12-01T04:27:26.296Z,0
2018-12-01T05:06:58.831Z,0
2018-12-01T05:07:51.015Z,0
2018-12-01T05:08:43.637Z,0
2018-12-01T05:09:36.201Z,0
2018-12-01T05:10:28.909Z,0
2018-12-01T05:11:21.387Z,0
2018-12-01T05:12:13.839Z,0
2018-12-01T05:13:06.634Z,0
2018-12-01T05:13:58.792Z,0
2018-12-01T05:14:51.429Z,0
2018-12-01T05:15:43.933Z,0
2018-12-01T05:16:36.431Z,0
2018-12-01T05:17:28.803Z,0
2018-12-01T05:18:21.258Z,0
2018-12-01T05:19:14.223Z,0
2018-12-01T05:20:06.706Z,0
2018-12-01T05:20:58.830Z,0
2018-12-01T05:21:51.439Z,0
2018-12-01T05:22:43.379Z,0
2018-12-01T05:23:35.730Z,0
2018-12-01T05:24:28.383Z,0
2018-12-01T05:25:20.827Z,0
2018-12-01T05:26:13.382Z,0
2018-12-01T05:27:05.933Z,0
2018-12-01T05:27:58.268Z,0
2018-12-01T05:28:50.434Z,0
2018-12-01T05:29:43.404Z,0
2018-12-01T05:30:35.881Z,0
2018-12-01T05:31:28.230Z,0
2018-12-01T05:32:20.705Z,0
2018-12-01T05:33:13.418Z,0
2018-12-01T05:34:05.734Z,0
2018-12-01T05:34:58.312Z,0
2018-12-01T05:35:50.688Z,0
2018-12-01T05:36:43.417Z,0
2018-12-01T05:37:35.872Z,0
2018-12-01T05:38:28.042Z,0
2018-12-01T05:39:20.331Z,0
2018-12-01T05:40:12.310Z,0
2018-12-01T05:41:04.716Z,0
2018-12-01T05:41:56.879Z,0
2018-12-01T05:42:49.519Z,0
2018-12-01T05:43:42.321Z,0
2018-12-01T05:44:34.702Z,0
2018-12-01T05:45:26.862Z,0
2018-12-01T05:46:19.263Z,0
2018-12-01T05:47:11.825Z,0
2018-12-01T05:48:04.051Z,0
2018-12-01T05:48:56.273Z,0
2018-12-01T05:49:49.822Z,0
2018-12-01T05:50:42.422Z,0
2018-12-01T05:51:34.646Z,0
2018-12-01T05:52:26.703Z,0
2018-12-01T05:53:19.080Z,0
2018-12-01T05:54:11.098Z,0
2018-12-01T05:55:03.710Z,0
2018-12-01T05:55:56.152Z,0
2018-12-01T05:56:47.819Z,0
2018-12-01T05:57:40.659Z,0
2018-12-01T05:58:32.810Z,0
2018-12-01T05:59:25.138Z,0
2018-12-01T06:00:17.752Z,0
2018-12-01T06:01:10.546Z,0
2018-12-01T06:02:02.387Z,0
2018-12-01T06:02:47.147Z,0
2018-12-01T06:03:27.566Z,0
2018-12-01T06:04:07.966Z,0
2018-12-01T06:04:48.344Z,0
2018-12-01T06:05:28.747Z,0
2018-12-01T06:06:09.115Z,0
2018-12-01T06:06:49.532Z,0
2018-12-01T06:07:29.928Z,0
2018-12-01T06:08:10.326Z,0
2018-12-01T06:08:50.665Z,0
2018-12-01T06:09:31.084Z,0
2018-12-01T06:10:11.522Z,0
2018-12-01T06:10:51.939Z,0
2018-12-01T06:11:32.252Z,0
2018-12-01T06:12:12.595Z,0
2018-12-01T06:12:53.021Z,0
2018-12-01T06:13:33.539Z,0
2018-12-01T06:14:13.934Z,0
2018-12-01T06:14:54.307Z,0
2018-12-01T06:15:34.687Z,0
2018-12-01T06:16:15.006Z,0
2018-12-01T06:16:55.451Z,0
2018-12-01T06:17:35.802Z,0
2018-12-01T06:18:16.207Z,0
2018-12-01T06:18:56.561Z,0
2018-12-01T06:19:37.035Z,0
2018-12-01T06:20:17.374Z,0
2018-12-01T06:20:57.756Z,0
2018-12-01T06:21:38.163Z,0
2018-12-01T06:22:18.523Z,0
2018-12-01T06:22:58.939Z,0
2018-12-01T06:23:39.354Z,0
2018-12-01T06:24:19.677Z,0
2018-12-01T06:25:00.118Z,0
2018-12-01T06:25:40.495Z,0
2018-12-01T06:26:20.926Z,0
2018-12-01T06:27:01.322Z,0
2018-12-01T06:27:41.696Z,0
2018-12-01T06:28:22.097Z,0
2018-12-01T06:29:02.539Z,0
2018-12-01T06:29:42.852Z,0
2018-12-01T06:30:23.308Z,0
2018-12-01T06:31:03.786Z,0
2018-12-01T06:31:44.162Z,0
2018-12-01T06:32:24.614Z,0
2018-12-01T06:33:04.984Z,0
2018-12-01T06:33:45.373Z,0
2018-12-01T06:34:25.767Z,0
2018-12-01T06:35:06.164Z,0
2018-12-01T06:35:46.646Z,0
2018-12-01T06:36:26.982Z,0
2018-12-01T06:37:07.341Z,0
2018-12-01T06:37:47.721Z,0
2018-12-01T06:38:28.115Z,0
2018-12-01T06:39:08.462Z,4
2018-12-01T06:39:48.874Z,4
2018-12-01T06:40:29.323Z,0
2018-12-01T06:41:09.654Z,0
2018-12-01T06:41:50.052Z,0
2018-12-01T06:42:30.404Z,4
2018-12-01T06:43:11.734Z,4
2018-12-01T06:43:51.234Z,0
2018-12-01T06:44:31.654Z,4
2018-12-01T06:45:12.044Z,4
2018-12-01T06:45:52.416Z,0
2018-12-01T06:46:32.825Z,4
2018-12-01T06:47:13.389Z,4
2018-12-01T06:47:53.750Z,4
2018-12-01T06:48:34.148Z,4
2018-12-01T06:49:14.536Z,4
2018-12-01T06:49:54.866Z,4
2018-12-01T06:50:35.296Z,4
2018-12-01T06:51:15.612Z,8
2018-12-01T06:51:56.066Z,8
2018-12-01T06:52:36.499Z,8
2018-12-01T06:53:16.874Z,8
2018-12-01T06:53:57.213Z,8
2018-12-01T06:54:37.627Z,8
2018-12-01T06:55:18.109Z,12
2018-12-01T06:55:58.515Z,12
2018-12-01T06:56:38.881Z,12
2018-12-01T06:57:19.261Z,16
2018-12-01T06:57:59.623Z,16
2018-12-01T06:58:40.033Z,16
2018-12-01T06:59:20.418Z,16
2018-12-01T07:00:00.839Z,20
2018-12-01T07:00:41.204Z,20
2018-12-01T07:01:21.626Z,24
2018-12-01T07:02:02.016Z,24
2018-12-01T07:02:42.354Z,24
2018-12-01T07:03:22.748Z,28
2018-12-01T07:04:03.199Z,32
2018-12-01T07:04:43.576Z,32
2018-12-01T07:05:23.970Z,32
2018-12-01T07:06:04.378Z,32
2018-12-01T07:06:44.684Z,36
2018-12-01T07:07:25.169Z,36
2018-12-01T07:08:05.529Z,40
2018-12-01T07:08:45.816Z,40
2018-12-01T07:09:26.271Z,44
2018-12-01T07:10:06.664Z,44
2018-12-01T07:10:47.027Z,48
2018-12-01T07:11:27.477Z,52
2018-12-01T07:12:07.781Z,52
2018-12-01T07:12:48.248Z,52
2018-12-01T07:13:28.689Z,60
2018-12-01T07:14:09.014Z,60
2018-12-01T07:14:49.372Z,60
2018-12-01T07:15:30.056Z,64
2018-12-01T07:18:17.920Z,84
2018-12-01T07:21:07.610Z,96
2018-12-01T07:22:00.217Z,104
2018-12-01T07:22:52.667Z,116
2018-12-01T07:23:44.801Z,124
2018-12-01T07:24:37.132Z,140
2018-12-01T07:25:29.677Z,160
2018-12-01T07:26:22.219Z,184
2018-12-01T07:27:14.547Z,196
2018-12-01T07:28:07.052Z,204
2018-12-01T07:28:59.818Z,208
2018-12-01T07:29:52.256Z,204
2018-12-01T07:30:44.657Z,200
2018-12-01T07:31:37.866Z,192
2018-12-01T07:32:30.258Z,188
2018-12-01T07:33:23.662Z,180
2018-12-01T07:34:16.030Z,172
2018-12-01T07:35:08.819Z,160
2018-12-01T07:36:01.704Z,160
2018-12-01T07:36:54.204Z,160
2018-12-01T07:37:46.477Z,164
2018-12-01T07:38:39.111Z,172
2018-12-01T07:39:31.631Z,176
2018-12-01T07:40:23.635Z,176
2018-12-01T07:41:16.174Z,180
2018-12-01T07:44:17.345Z,184
2018-12-01T07:45:15.346Z,192
2018-12-01T07:46:13.295Z,204
2018-12-01T07:47:13.372Z,220
2018-12-01T07:48:16.098Z,232
2018-12-01T07:49:16.062Z,244
2018-12-01T07:50:08.094Z,264
2018-12-01T07:51:00.144Z,272
2018-12-01T07:51:53.970Z,288
2018-12-01T07:52:47.489Z,304
2018-12-01T07:53:40.259Z,324
2018-12-01T07:54:36.948Z,340
2018-12-01T07:55:30.505Z,332
2018-12-01T07:56:22.304Z,328
2018-12-01T07:57:17.526Z,324
2018-12-01T07:58:12.673Z,312
2018-12-01T07:59:07.658Z,308
2018-12-01T08:00:01.433Z,308
2018-12-01T08:03:00.098Z,276
2018-12-01T08:03:54.435Z,292
2018-12-01T08:04:47.010Z,308
2018-12-01T08:05:39.548Z,312
2018-12-01T08:06:32.153Z,320
2018-12-01T08:07:24.368Z,332
2018-12-01T08:08:16.977Z,340
2018-12-01T08:09:18.420Z,352
2018-12-01T08:10:13.338Z,368
2018-12-01T08:11:06.469Z,380
2018-12-01T08:11:59.361Z,384
2018-12-01T08:12:57.230Z,376
2018-12-01T08:13:49.565Z,376
2018-12-01T08:14:42.966Z,384
2018-12-01T08:15:35.041Z,404
2018-12-01T08:16:27.498Z,428
2018-12-01T08:17:27.546Z,440
2018-12-01T08:18:29.874Z,436
2018-12-01T08:19:28.517Z,432
2018-12-01T08:20:22.277Z,444
2018-12-01T08:21:14.641Z,464
2018-12-01T08:22:06.979Z,484
2018-12-01T08:22:59.444Z,504
2018-12-01T08:23:55.464Z,516
2018-12-01T08:24:50.216Z,520
2018-12-01T08:25:42.763Z,528
2018-12-01T08:26:35.727Z,528
2018-12-01T08:27:29.130Z,528
2018-12-01T08:28:21.385Z,528
2018-12-01T08:29:14.383Z,528
2018-12-01T08:30:06.366Z,532
2018-12-01T08:30:59.031Z,532
2018-12-01T08:31:51.695Z,528
2018-12-01T08:32:43.803Z,528
2018-12-01T08:33:38.427Z,536
2018-12-01T08:34:31.412Z,548
2018-12-01T08:35:23.980Z,564
2018-12-01T08:36:18.210Z,588
2018-12-01T08:37:10.981Z,612
2018-12-01T08:38:03.265Z,636
2018-12-01T08:38:55.806Z,656
2018-12-01T08:39:50.329Z,676
2018-12-01T08:40:42.798Z,696
2018-12-01T08:41:34.954Z,716
2018-12-01T08:42:28.452Z,736
2018-12-01T08:43:20.443Z,744
2018-12-01T08:44:12.369Z,744
2018-12-01T08:45:04.403Z,744
2018-12-01T08:45:57.140Z,740
2018-12-01T08:46:48.900Z,752
2018-12-01T08:47:41.724Z,752
2018-12-01T08:48:34.147Z,756
2018-12-01T08:49:26.209Z,748
2018-12-01T08:50:18.825Z,776
2018-12-01T08:51:10.748Z,804
2018-12-01T08:52:02.919Z,792
2018-12-01T08:52:55.379Z,788
2018-12-01T08:53:48.017Z,776
2018-12-01T08:54:39.814Z,768
2018-12-01T08:55:31.956Z,772
2018-12-01T08:56:24.253Z,796
2018-12-01T08:57:17.636Z,824
2018-12-01T08:58:09.878Z,848
2018-12-01T08:59:08.976Z,868
2018-12-01T09:00:00.413Z,880
2018-12-01T09:00:52.967Z,888
2018-12-01T09:01:45.331Z,896
2018-12-01T09:02:39.218Z,900
2018-12-01T09:03:31.461Z,912
2018-12-01T09:04:24.330Z,940
2018-12-01T09:05:16.209Z,956
2018-12-01T09:06:08.268Z,976
2018-12-01T09:07:00.403Z,992
2018-12-01T09:07:52.086Z,1016
2018-12-01T09:08:46.714Z,1036
2018-12-01T09:09:39.533Z,1044
2018-12-01T09:10:24.311Z,1040
2018-12-01T09:11:04.653Z,1036
2018-12-01T09:11:45.043Z,1012
2018-12-01T09:12:25.477Z,980
2018-12-01T09:13:05.824Z,948
2018-12-01T09:13:46.272Z,928
2018-12-01T09:14:26.726Z,912
2018-12-01T09:15:07.165Z,892
2018-12-01T09:15:48.115Z,872
2018-12-01T09:16:28.507Z,852
2018-12-01T09:17:08.937Z,836
2018-12-01T09:17:49.350Z,828
2018-12-01T09:18:29.654Z,816
2018-12-01T09:19:10.072Z,796
2018-12-01T09:19:50.487Z,788
2018-12-01T09:20:30.849Z,772
2018-12-01T09:21:11.269Z,764
2018-12-01T09:21:51.604Z,768
2018-12-01T09:22:32.052Z,748
2018-12-01T09:23:12.449Z,736
2018-12-01T09:23:52.822Z,732
2018-12-01T09:24:33.205Z,724
2018-12-01T09:25:13.539Z,724
2018-12-01T09:25:54.050Z,732
2018-12-01T09:26:34.366Z,740
2018-12-01T09:27:14.891Z,752
2018-12-01T09:27:55.592Z,764
2018-12-01T09:28:36.068Z,776
2018-12-01T09:29:16.439Z,776
2018-12-01T09:29:56.883Z,796
2018-12-01T09:30:37.274Z,816
2018-12-01T09:31:17.819Z,828
2018-12-01T09:31:58.174Z,808
2018-12-01T09:32:38.809Z,800
2018-12-01T09:33:19.230Z,824
2018-12-01T09:33:59.580Z,868
2018-12-01T09:34:40.027Z,860
2018-12-01T09:35:20.390Z,924
2018-12-01T09:36:00.805Z,940
2018-12-01T09:36:41.108Z,912
2018-12-01T09:37:21.595Z,932
2018-12-01T09:38:01.999Z,920
2018-12-01T09:38:42.414Z,912
2018-12-01T09:39:22.784Z,896
2018-12-01T09:40:03.206Z,908
2018-12-01T09:40:44.054Z,784
2018-12-01T09:41:24.429Z,748
2018-12-01T09:42:04.834Z,756
2018-12-01T09:42:45.277Z,820
2018-12-01T09:43:25.665Z,872
2018-12-01T09:44:06.063Z,892
2018-12-01T09:44:46.431Z,944
2018-12-01T09:45:26.862Z,800
2018-12-01T09:46:07.300Z,884
2018-12-01T09:46:47.626Z,904
2018-12-01T09:47:28.112Z,896
2018-12-01T09:48:08.527Z,896
2018-12-01T09:48:48.859Z,884
2018-12-01T09:49:29.363Z,900
2018-12-01T09:50:11.289Z,896
2018-12-01T09:50:51.697Z,840
2018-12-01T09:51:32.083Z,856
2018-12-01T09:52:12.452Z,868
2018-12-01T09:52:52.871Z,884
2018-12-01T09:53:33.299Z,920
2018-12-01T09:54:13.685Z,976
2018-12-01T09:54:55.688Z,1008
2018-12-01T09:55:36.176Z,1048
2018-12-01T09:56:16.509Z,1068
2018-12-01T09:56:56.984Z,1088
2018-12-01T09:57:40.855Z,1096
2018-12-01T09:58:21.242Z,1068
2018-12-01T09:59:01.661Z,1088
2018-12-01T09:59:42.129Z,1092
2018-12-01T10:00:22.836Z,1108
2018-12-01T10:01:03.427Z,1104
2018-12-01T10:01:43.842Z,1112
2018-12-01T10:02:24.217Z,1112
2018-12-01T10:03:04.655Z,1116
2018-12-01T10:03:44.968Z,1132
2018-12-01T10:04:26.593Z,1120
2018-12-01T10:05:07.004Z,1116
2018-12-01T10:05:47.375Z,1124
2018-12-01T10:06:27.807Z,1140
2018-12-01T10:07:09.266Z,1144
2018-12-01T10:07:49.611Z,1148
2018-12-01T10:08:31.074Z,1140
2018-12-01T10:09:13.031Z,1144
2018-12-01T10:09:53.372Z,1136
2018-12-01T10:10:33.860Z,1108
2018-12-01T10:11:15.197Z,1096
2018-12-01T10:12:00.088Z,992
2018-12-01T10:12:40.502Z,1056
2018-12-01T10:13:20.774Z,1056
2018-12-01T10:14:01.239Z,1032
2018-12-01T10:14:42.338Z,1064
2018-12-01T10:15:27.219Z,1120
2018-12-01T10:16:07.038Z,1200
2018-12-01T10:16:47.427Z,1252
2018-12-01T10:17:27.801Z,1360
2018-12-01T10:18:08.399Z,1316
2018-12-01T10:18:56.355Z,1320
2018-12-01T10:19:32.068Z,1276
2018-12-01T10:20:14.222Z,1188
2018-12-01T10:20:54.833Z,1128
2018-12-01T10:21:35.380Z,1076
2018-12-01T10:22:15.764Z,1024
2018-12-01T10:22:56.195Z,996
2018-12-01T10:23:36.601Z,952
2018-12-01T10:24:17.058Z,928
2018-12-01T10:24:59.037Z,912
2018-12-01T10:25:40.109Z,920
2018-12-01T10:26:21.022Z,948
2018-12-01T10:27:02.410Z,964
2018-12-01T10:27:42.772Z,972
2018-12-01T10:28:23.179Z,964
2018-12-01T10:29:03.838Z,968
2018-12-01T11:08:24.458Z,900
2018-12-01T11:09:05.106Z,904
2018-12-01T11:09:45.687Z,912
2018-12-01T11:10:25.997Z,928
2018-12-01T11:11:06.478Z,944
2018-12-01T11:11:46.955Z,964
2018-12-01T11:12:27.551Z,996
2018-12-01T11:13:08.983Z,1032
2018-12-01T11:13:50.601Z,1084
2018-12-01T11:14:31.615Z,1164
2018-12-01T11:15:12.210Z,1208
2018-12-01T11:15:52.933Z,1240
2018-12-01T11:16:33.746Z,1248
2018-12-01T11:17:14.256Z,1228
2018-12-01T11:17:54.965Z,1212
2018-12-01T11:18:35.488Z,1196
2018-12-01T11:19:15.795Z,1156
2018-12-01T11:19:56.234Z,1124
2018-12-01T11:20:36.921Z,1128
2018-12-01T11:21:17.803Z,1136
2018-12-01T11:21:58.542Z,1136
2018-12-01T11:22:39.042Z,1148
2018-12-01T11:23:20.326Z,1156
2018-12-01T11:24:00.834Z,1160
2018-12-01T11:24:41.465Z,1164
2018-12-01T11:25:22.330Z,1160
2018-12-01T11:26:03.049Z,1148
2018-12-01T11:26:45.488Z,1120
2018-12-01T11:27:25.978Z,1100
2018-12-01T11:28:06.382Z,1080
2018-12-01T11:28:46.753Z,1056
2018-12-01T11:29:27.244Z,1016
2018-12-01T11:30:07.532Z,1020
2018-12-01T11:30:47.932Z,1016
2018-12-01T11:31:29.765Z,1012
2018-12-01T11:32:10.152Z,1004
2018-12-01T11:32:50.565Z,1000
2018-12-01T11:33:30.896Z,1008
2018-12-01T11:34:11.291Z,1020
2018-12-01T11:34:52.978Z,1040
2018-12-01T11:35:33.883Z,1048
2018-12-01T11:36:15.568Z,1052
2018-12-01T11:36:55.878Z,1072
2018-12-01T11:37:36.245Z,1060
2018-12-01T11:38:16.647Z,1044
2018-12-01T11:38:57.029Z,1024
2018-12-01T11:39:37.684Z,1020
2018-12-01T11:40:18.230Z,1056
2018-12-01T11:40:58.605Z,1164
2018-12-01T11:41:39.708Z,1280
2018-12-01T11:42:20.516Z,1308
2018-12-01T11:43:00.860Z,1272
2018-12-01T11:43:42.324Z,1184
2018-12-01T11:44:22.991Z,1164
2018-12-01T11:45:04.864Z,1156
2018-12-01T11:45:47.071Z,1176
2018-12-01T11:46:28.344Z,1232
2018-12-01T11:47:08.912Z,1276
2018-12-01T11:47:49.702Z,1276
2018-12-01T11:48:30.121Z,1280
2018-12-01T11:49:10.651Z,1280
2018-12-01T11:49:51.167Z,1308
2018-12-01T11:50:32.666Z,1344
2018-12-01T11:51:14.806Z,1360
2018-12-01T11:51:55.145Z,1376
2018-12-01T11:52:35.698Z,1368
2018-12-01T11:53:16.150Z,1296
2018-12-01T11:53:57.229Z,1356
2018-12-01T11:54:38.413Z,1396
2018-12-01T11:55:18.717Z,1456
2018-12-01T11:55:59.523Z,1496
2018-12-01T11:56:39.831Z,1520
2018-12-01T11:57:20.177Z,1520
2018-12-01T11:58:02.030Z,1532
2018-12-01T11:58:42.266Z,1548
2018-12-01T11:59:23.005Z,1556
2018-12-01T12:00:03.538Z,1536
2018-12-01T12:00:43.884Z,1516
2018-12-01T12:01:25.088Z,1456
2018-12-01T12:02:05.470Z,1432